createdAt,value
2018-07-23T00:01:44.196Z,22.78
2018-07-23T00:04:14.394Z,22.72
2018-07-23T00:06:44.406Z,22.67
2018-07-23T00:09:14.178Z,22.69
2018-07-23T00:11:44.073Z,22.63
2018-07-23T00:14:13.940Z,22.64
2018-07-23T00:16:43.961Z,22.69
2018-07-23T00:19:13.724Z,22.68
2018-07-23T00:21:43.722Z,22.83
2018-07-23T00:24:13.545Z,22.69
2018-07-23T00:26:43.326Z,22.86
2018-07-23T00:29:13.246Z,22.73
2018-07-23T00:31:43.053Z,22.91
2018-07-23T00:34:12.854Z,22.87
2018-07-23T00:36:42.595Z,22.80
2018-07-23T00:39:12.436Z,22.69
2018-07-23T00:41:42.241Z,22.65
2018-07-23T00:44:12.235Z,22.63
2018-07-23T00:46:42.169Z,22.57
2018-07-23T00:49:11.981Z,22.60
2018-07-23T00:51:41.969Z,22.60
2018-07-23T00:54:11.475Z,22.52
2018-07-23T00:56:40.956Z,22.45
2018-07-23T00:59:10.980Z,22.54
2018-07-23T01:01:40.887Z,22.42
2018-07-23T01:04:10.855Z,22.35
2018-07-23T01:06:40.671Z,22.26
2018-07-23T01:09:11.427Z,22.31
2018-07-23T01:11:41.239Z,22.33
2018-07-23T01:14:11.083Z,22.37
2018-07-23T01:16:41.032Z,22.36
2018-07-23T01:19:10.980Z,22.36
2018-07-23T01:21:40.816Z,22.31
2018-07-23T01:24:10.585Z,22.27
2018-07-23T01:26:40.463Z,22.17
2018-07-23T01:29:10.249Z,22.14
2018-07-23T01:31:40.095Z,22.14
2018-07-23T01:34:10.265Z,22.04
2018-07-23T01:36:40.092Z,21.98
2018-07-23T01:39:11.052Z,21.87
2018-07-23T01:41:41.245Z,21.89
2018-07-23T01:44:11.225Z,21.90
2018-07-23T01:46:40.726Z,21.92
2018-07-23T01:49:10.552Z,21.90
2018-07-23T01:51:40.672Z,21.93
2018-07-23T01:54:10.662Z,21.90
2018-07-23T01:56:41.005Z,21.84
2018-07-23T01:59:10.547Z,21.79
2018-07-23T02:01:40.512Z,21.78
2018-07-23T02:04:09.950Z,21.73
2018-07-23T02:06:39.752Z,21.63
2018-07-23T02:09:12.149Z,21.62
2018-07-23T02:11:42.320Z,21.56
2018-07-23T02:14:12.536Z,21.65
2018-07-23T02:16:42.472Z,21.68
2018-07-23T02:19:12.419Z,21.55
2018-07-23T02:21:42.157Z,21.52
2018-07-23T02:24:12.309Z,21.55
2018-07-23T02:26:42.339Z,21.62
2018-07-23T02:29:12.100Z,21.59
2018-07-23T02:31:41.881Z,21.61
2018-07-23T02:34:11.673Z,21.53
2018-07-23T02:36:41.091Z,21.47
2018-07-23T02:39:12.133Z,21.40
2018-07-23T02:41:42.161Z,21.37
2018-07-23T02:44:12.052Z,21.38
2018-07-23T02:46:41.559Z,21.20
2018-07-23T02:49:11.634Z,21.21
2018-07-23T02:51:41.638Z,21.30
2018-07-23T02:54:11.378Z,21.36
2018-07-23T02:56:41.135Z,21.44
2018-07-23T02:59:11.085Z,21.42
2018-07-23T03:01:41.064Z,21.45
2018-07-23T03:04:11.093Z,21.48
2018-07-23T03:06:41.438Z,21.50
2018-07-23T03:09:11.460Z,21.32
2018-07-23T03:11:41.307Z,21.31
2018-07-23T03:14:11.492Z,21.25
2018-07-23T03:16:41.617Z,21.28
2018-07-23T03:19:11.408Z,21.28
2018-07-23T03:21:41.319Z,21.32
2018-07-23T03:24:11.296Z,21.19
2018-07-23T03:26:41.236Z,21.21
2018-07-23T03:29:11.588Z,21.20
2018-07-23T03:31:41.369Z,21.05
2018-07-23T03:34:11.501Z,20.98
2018-07-23T03:36:41.354Z,20.92
2018-07-23T03:39:12.116Z,20.76
2018-07-23T03:41:42.048Z,20.72
2018-07-23T03:44:11.547Z,20.71
2018-07-23T03:46:41.569Z,20.73
2018-07-23T03:49:11.544Z,20.77
2018-07-23T03:51:41.405Z,20.77
2018-07-23T03:54:11.368Z,20.73
2018-07-23T03:56:41.185Z,20.73
2018-07-23T03:59:11.054Z,20.79
2018-07-23T04:01:40.881Z,20.75
2018-07-23T04:04:10.953Z,20.76
2018-07-23T04:06:40.836Z,20.61
2018-07-23T04:09:10.636Z,20.58
2018-07-23T04:11:41.227Z,20.60
2018-07-23T04:14:24.075Z,20.67
2018-07-23T04:16:54.207Z,20.64
2018-07-23T04:19:27.120Z,20.56
2018-07-23T04:21:57.101Z,20.47
2018-07-23T04:24:26.488Z,20.37
2018-07-23T04:26:56.277Z,20.39
2018-07-23T04:29:26.339Z,20.48
2018-07-23T04:31:56.259Z,20.71
2018-07-23T04:34:26.164Z,20.85
2018-07-23T04:36:56.152Z,20.99
2018-07-23T04:39:26.020Z,21.17
2018-07-23T04:41:56.277Z,21.25
2018-07-23T04:44:26.394Z,21.33
2018-07-23T04:46:56.266Z,21.49
2018-07-23T04:49:26.176Z,21.64
2018-07-23T04:51:56.000Z,21.72
2018-07-23T04:54:26.414Z,21.86
2018-07-23T04:56:57.722Z,21.90
2018-07-23T04:59:27.748Z,22.01
2018-07-23T05:01:57.994Z,21.98
2018-07-23T05:04:27.810Z,21.97
2018-07-23T05:06:57.727Z,21.97
2018-07-23T05:09:27.681Z,22.12
2018-07-23T05:11:57.707Z,22.19
2018-07-23T05:14:27.733Z,22.23
2018-07-23T05:16:57.730Z,22.22
2018-07-23T05:19:27.469Z,22.17
2018-07-23T05:21:57.486Z,22.34
2018-07-23T05:24:27.861Z,22.58
2018-07-23T05:26:57.599Z,22.67
2018-07-23T05:29:27.555Z,22.80
2018-07-23T05:31:57.478Z,22.90
2018-07-23T05:34:27.422Z,23.08
2018-07-23T05:36:57.535Z,23.37
2018-07-23T05:39:27.351Z,23.80
2018-07-23T05:41:57.388Z,23.74
2018-07-23T05:44:27.733Z,23.70
2018-07-23T05:47:01.741Z,23.57
2018-07-23T05:49:31.706Z,23.53
2018-07-23T05:52:01.750Z,23.63
2018-07-23T05:54:31.613Z,23.83
2018-07-23T05:57:01.927Z,23.98
2018-07-23T05:59:31.970Z,23.99
2018-07-23T06:02:01.720Z,24.04
2018-07-23T06:04:31.622Z,24.07
2018-07-23T06:07:01.582Z,24.15
2018-07-23T06:09:32.483Z,24.11
2018-07-23T06:12:02.670Z,24.19
2018-07-23T06:14:32.573Z,24.36
2018-07-23T06:17:02.474Z,24.45
2018-07-23T06:19:32.413Z,24.41
2018-07-23T06:22:02.186Z,24.42
2018-07-23T06:24:32.178Z,24.52
2018-07-23T06:27:02.063Z,24.61
2018-07-23T06:29:32.037Z,24.66
2018-07-23T06:32:02.220Z,24.73
2018-07-23T06:34:31.955Z,24.81
2018-07-23T06:37:01.939Z,24.81
2018-07-23T06:39:32.324Z,24.93
2018-07-23T06:42:02.272Z,25.09
2018-07-23T06:44:32.161Z,25.21
2018-07-23T06:47:02.234Z,25.28
2018-07-23T06:49:32.244Z,25.28
2018-07-23T06:52:02.350Z,25.25
2018-07-23T06:54:32.388Z,25.23
2018-07-23T06:57:02.509Z,25.25
2018-07-23T06:59:32.435Z,25.28
2018-07-23T07:02:02.483Z,25.43
2018-07-23T07:04:32.315Z,25.61
2018-07-23T07:07:02.213Z,25.81
2018-07-23T07:09:32.057Z,25.97
2018-07-23T07:12:02.015Z,26.16
2018-07-23T07:14:31.856Z,26.19
2018-07-23T07:17:01.882Z,26.10
2018-07-23T07:19:31.711Z,26.00
2018-07-23T07:22:01.620Z,26.10
2018-07-23T07:24:31.549Z,26.09
2018-07-23T07:27:01.416Z,25.85
2018-07-23T07:29:31.420Z,25.95
2018-07-23T07:32:01.397Z,26.23
2018-07-23T07:34:31.599Z,26.35
2018-07-23T07:37:01.635Z,26.48
2018-07-23T07:39:31.625Z,26.46
2018-07-23T07:42:01.617Z,26.51
2018-07-23T07:44:31.515Z,26.57
2018-07-23T07:47:01.737Z,26.62
2018-07-23T07:49:31.730Z,26.82
2018-07-23T07:52:01.292Z,27.02
2018-07-23T07:54:31.359Z,27.20
2018-07-23T07:57:01.448Z,27.01
2018-07-23T07:59:31.262Z,26.49
2018-07-23T08:02:01.305Z,26.27
2018-07-23T08:04:31.540Z,26.57
2018-07-23T08:07:01.455Z,26.56
2018-07-23T08:09:30.982Z,26.24
2018-07-23T08:12:00.948Z,26.12
2018-07-23T08:14:31.201Z,26.20
2018-07-23T08:17:00.921Z,26.17
2018-07-23T08:19:30.933Z,26.42
2018-07-23T08:22:00.510Z,26.67
2018-07-23T08:24:30.423Z,26.86
2018-07-23T08:27:00.319Z,27.04
2018-07-23T08:29:30.358Z,27.22
2018-07-23T08:32:00.531Z,27.36
2018-07-23T08:34:30.303Z,27.43
2018-07-23T08:37:00.286Z,27.47
2018-07-23T08:39:30.441Z,27.48
2018-07-23T08:42:00.597Z,27.09
2018-07-23T08:44:30.619Z,27.05
2018-07-23T08:47:00.610Z,27.15
2018-07-23T08:49:30.328Z,27.22
2018-07-23T08:52:00.227Z,27.24
2018-07-23T08:54:29.653Z,27.20
2018-07-23T08:56:59.522Z,27.17
2018-07-23T08:59:29.551Z,27.27
2018-07-23T09:01:59.544Z,27.43
2018-07-23T09:04:29.395Z,27.34
2018-07-23T09:07:00.042Z,27.37
2018-07-23T09:09:29.849Z,27.49
2018-07-23T09:11:59.424Z,27.52
2018-07-23T09:14:29.404Z,27.62
2018-07-23T09:16:59.409Z,27.74
2018-07-23T09:19:29.339Z,27.80
2018-07-23T09:21:59.361Z,27.80
2018-07-23T09:24:29.412Z,27.91
2018-07-23T09:26:59.348Z,27.95
2018-07-23T09:29:29.083Z,27.97
2018-07-23T09:31:59.146Z,27.90
2018-07-23T09:34:29.237Z,27.85
2018-07-23T09:36:58.994Z,27.76
2018-07-23T09:39:28.877Z,27.62
2018-07-23T09:41:59.030Z,27.64
2018-07-23T09:44:28.985Z,27.47
2018-07-23T09:46:58.793Z,27.50
2018-07-23T09:49:28.738Z,27.47
2018-07-23T09:51:58.835Z,27.44
2018-07-23T09:54:28.733Z,27.39
2018-07-23T09:56:58.607Z,27.38
2018-07-23T09:59:28.876Z,27.22
2018-07-23T10:01:58.535Z,27.32
2018-07-23T10:04:28.545Z,27.27
2018-07-23T10:06:58.356Z,27.27
2018-07-23T10:09:28.224Z,27.24
2018-07-23T10:11:57.780Z,27.32
2018-07-23T10:14:27.904Z,27.49
2018-07-23T10:16:57.732Z,27.55
2018-07-23T10:19:27.827Z,27.66
2018-07-23T10:21:57.839Z,27.76
2018-07-23T10:24:28.152Z,27.89
2018-07-23T10:26:58.005Z,28.03
2018-07-23T10:29:27.939Z,27.96
2018-07-23T10:31:57.374Z,27.99
2018-07-23T10:34:27.246Z,27.99
2018-07-23T10:36:57.084Z,28.02
2018-07-23T10:39:27.021Z,28.07
2018-07-23T10:41:56.780Z,27.83
2018-07-23T10:44:26.672Z,27.82
2018-07-23T10:46:56.595Z,27.94
2018-07-23T10:49:26.489Z,28.05
2018-07-23T10:51:56.439Z,27.86
2018-07-23T10:54:26.321Z,27.85
2018-07-23T10:56:56.183Z,27.71
2018-07-23T10:59:26.030Z,27.66
2018-07-23T11:01:55.996Z,27.79
2018-07-23T11:04:25.943Z,28.02
2018-07-23T11:06:56.018Z,28.14
2018-07-23T11:09:25.880Z,28.11
2018-07-23T11:11:55.937Z,28.07
2018-07-23T11:14:25.993Z,28.15
2018-07-23T11:16:55.982Z,28.40
2018-07-23T11:19:26.188Z,28.64
2018-07-23T11:21:56.121Z,28.75
2018-07-23T11:24:25.936Z,28.74
2018-07-23T11:26:55.926Z,28.84
2018-07-23T11:29:26.076Z,29.00
2018-07-23T11:31:56.619Z,29.12
2018-07-23T11:34:26.486Z,29.24
2018-07-23T11:36:56.528Z,29.21
2018-07-23T11:39:26.931Z,28.98
2018-07-23T11:41:56.817Z,29.08
2018-07-23T11:44:26.917Z,29.13
2018-07-23T11:46:57.090Z,29.18
2018-07-23T11:49:27.040Z,29.40
2018-07-23T11:51:56.961Z,29.64
2018-07-23T11:54:27.212Z,29.50
2018-07-23T11:56:57.213Z,29.72
2018-07-23T11:59:27.112Z,29.73
2018-07-23T12:01:56.893Z,29.80
2018-07-23T12:04:26.698Z,29.75
2018-07-23T12:06:56.635Z,29.79
2018-07-23T12:09:26.715Z,29.80
2018-07-23T12:11:56.233Z,29.71
2018-07-23T12:14:26.194Z,29.74
2018-07-23T12:16:56.383Z,29.35
2018-07-23T12:19:26.202Z,29.25
2018-07-23T12:21:56.082Z,29.39
2018-07-23T12:24:26.271Z,29.37
2018-07-23T12:26:56.191Z,29.33
2018-07-23T12:29:26.144Z,29.46
2018-07-23T12:31:55.969Z,29.57
2018-07-23T12:34:25.792Z,29.60
2018-07-23T12:36:55.820Z,29.54
2018-07-23T12:39:25.785Z,29.52
2018-07-23T12:41:55.330Z,29.17
2018-07-23T12:44:25.288Z,28.97
2018-07-23T12:46:55.285Z,28.84
2018-07-23T12:49:25.161Z,28.88
2018-07-23T12:51:54.762Z,29.10
2018-07-23T12:54:24.793Z,29.53
2018-07-23T12:56:54.432Z,29.30
2018-07-23T12:59:24.402Z,29.21
2018-07-23T13:01:54.436Z,29.36
2018-07-23T13:04:23.918Z,29.64
2018-07-23T13:06:54.132Z,29.87
2018-07-23T13:09:24.111Z,30.09
2018-07-23T13:11:53.969Z,30.33
2018-07-23T13:14:24.217Z,30.61
2018-07-23T13:16:53.628Z,30.94
2018-07-23T13:19:23.272Z,30.88
2018-07-23T13:21:53.249Z,30.69
2018-07-23T13:24:23.219Z,30.88
2018-07-23T13:26:52.972Z,31.19
2018-07-23T13:29:22.454Z,31.39
2018-07-23T13:31:52.576Z,31.22
2018-07-23T13:34:22.481Z,30.73
2018-07-23T13:36:52.429Z,31.06
2018-07-23T13:39:22.014Z,31.53
2018-07-23T13:41:51.980Z,32.02
2018-07-23T13:44:21.899Z,32.33
2018-07-23T13:46:51.991Z,32.71
2018-07-23T13:49:21.674Z,32.47
2018-07-23T13:51:51.840Z,31.78
2018-07-23T13:54:21.882Z,31.83
2018-07-23T13:56:51.860Z,32.16
2018-07-23T13:59:21.523Z,32.74
2018-07-23T14:01:51.560Z,33.37
2018-07-23T14:04:21.561Z,33.72
2018-07-23T14:06:51.518Z,33.93
2018-07-23T14:09:21.159Z,34.08
2018-07-23T14:11:51.090Z,34.13
2018-07-23T14:14:21.265Z,34.18
2018-07-23T14:16:51.477Z,34.26
2018-07-23T14:19:21.158Z,34.23
2018-07-23T14:21:51.158Z,33.94
2018-07-23T14:24:21.073Z,33.48
2018-07-23T14:26:50.886Z,32.89
2018-07-23T14:29:20.829Z,32.25
2018-07-23T14:31:50.706Z,32.74
2018-07-23T14:34:21.204Z,32.82
2018-07-23T14:36:51.640Z,33.09
2018-07-23T14:39:21.558Z,33.73
2018-07-23T14:41:51.600Z,33.68
2018-07-23T14:44:21.453Z,32.77
2018-07-23T14:46:51.850Z,32.35
2018-07-23T14:49:21.837Z,31.97
2018-07-23T14:51:52.194Z,31.75
2018-07-23T14:54:22.071Z,31.80
2018-07-23T14:56:51.997Z,32.59
2018-07-23T14:59:21.925Z,33.39
2018-07-23T15:01:51.831Z,34.04
2018-07-23T15:04:22.106Z,34.44
2018-07-23T15:06:52.352Z,34.80
2018-07-23T15:09:21.870Z,34.24
2018-07-23T15:11:52.295Z,33.59
2018-07-23T15:14:22.437Z,32.75
2018-07-23T15:16:52.402Z,32.74
2018-07-23T15:19:22.224Z,33.05
2018-07-23T15:21:52.145Z,33.68
2018-07-23T15:24:22.366Z,33.71
2018-07-23T15:26:51.925Z,33.19
2018-07-23T15:29:22.423Z,33.28
2018-07-23T15:31:52.432Z,33.01
2018-07-23T15:34:21.969Z,32.71
2018-07-23T15:36:52.145Z,32.61
2018-07-23T15:39:22.303Z,32.41
2018-07-23T15:41:52.345Z,32.31
2018-07-23T15:44:22.396Z,32.12
2018-07-23T15:46:52.127Z,32.10
2018-07-23T15:49:21.924Z,31.94
2018-07-23T15:51:52.094Z,31.93
2018-07-23T15:54:22.202Z,31.93
2018-07-23T15:56:52.171Z,31.74
2018-07-23T15:59:22.414Z,31.75
2018-07-23T16:01:51.920Z,31.78
2018-07-23T16:04:21.490Z,31.81
2018-07-23T16:06:51.462Z,31.30
2018-07-23T16:09:21.688Z,30.87
2018-07-23T16:11:51.702Z,30.51
2018-07-23T16:14:21.667Z,30.23
2018-07-23T16:16:51.626Z,30.22
2018-07-23T16:19:21.465Z,30.36
2018-07-23T16:21:51.407Z,30.41
2018-07-23T16:24:21.199Z,30.44
2018-07-23T16:26:51.255Z,30.54
2018-07-23T16:29:21.439Z,30.48
2018-07-23T16:31:51.439Z,30.56
2018-07-23T16:34:21.958Z,30.58
2018-07-23T16:36:51.605Z,30.64
2018-07-23T16:39:21.520Z,30.70
2018-07-23T16:41:51.508Z,30.68
2018-07-23T16:44:21.564Z,30.67
2018-07-23T16:46:51.776Z,30.60
2018-07-23T16:49:22.061Z,30.61
2018-07-23T16:51:51.905Z,30.62
2018-07-23T16:54:22.034Z,30.64
2018-07-23T16:56:51.897Z,30.61
2018-07-23T16:59:21.894Z,30.63
2018-07-23T17:01:52.163Z,30.58
2018-07-23T17:04:22.266Z,30.40
2018-07-23T17:06:52.305Z,30.07
2018-07-23T17:09:22.707Z,30.08
2018-07-23T17:11:52.301Z,30.20
2018-07-23T17:14:22.408Z,30.15
2018-07-23T17:16:52.360Z,30.21
2018-07-23T17:19:22.588Z,30.44
2018-07-23T17:21:52.779Z,30.33
2018-07-23T17:24:22.755Z,30.23
2018-07-23T17:26:52.788Z,30.25
2018-07-23T17:29:22.795Z,30.16
2018-07-23T17:31:53.212Z,30.12
2018-07-23T17:34:23.132Z,30.24
2018-07-23T17:36:53.043Z,30.14
2018-07-23T17:39:22.948Z,30.11
2018-07-23T17:41:52.872Z,30.04
2018-07-23T17:44:22.715Z,29.98
2018-07-23T17:46:52.585Z,29.99
2018-07-23T17:49:22.685Z,29.96
2018-07-23T17:51:52.098Z,30.05
2018-07-23T17:54:22.120Z,30.25
2018-07-23T17:56:52.408Z,30.03
2018-07-23T17:59:22.460Z,29.99
2018-07-23T18:01:52.431Z,29.91
2018-07-23T18:04:22.675Z,29.80
2018-07-23T18:06:52.577Z,29.77
2018-07-23T18:09:22.459Z,29.81
2018-07-23T18:11:52.431Z,29.77
2018-07-23T18:14:22.111Z,29.77
2018-07-23T18:16:52.079Z,29.71
2018-07-23T18:19:22.530Z,29.65
2018-07-23T18:21:52.696Z,29.61
2018-07-23T18:24:25.816Z,29.55
2018-07-23T18:26:55.674Z,29.50
2018-07-23T18:29:25.557Z,29.46
2018-07-23T18:31:55.199Z,29.45
2018-07-23T18:34:25.075Z,29.41
2018-07-23T18:36:55.415Z,29.38
2018-07-23T18:39:25.288Z,29.42
2018-07-23T18:41:55.057Z,29.52
2018-07-23T18:44:25.194Z,29.47
2018-07-23T18:46:55.553Z,29.48
2018-07-23T18:49:43.373Z,29.59
2018-07-23T18:52:14.298Z,29.38
2018-07-23T18:54:45.808Z,29.59
2018-07-23T18:57:15.952Z,29.32
2018-07-23T18:59:46.083Z,29.24
2018-07-23T19:02:17.620Z,29.10
2018-07-23T19:04:47.735Z,28.94
2018-07-23T19:07:17.652Z,28.82
2018-07-23T19:09:48.186Z,28.72
2018-07-23T19:12:18.067Z,28.68
2018-07-23T19:14:48.176Z,28.62
2018-07-23T19:17:18.244Z,28.53
2018-07-23T19:19:48.212Z,28.43
2018-07-23T19:22:17.970Z,28.36
2018-07-23T19:24:47.951Z,28.28
2018-07-23T19:27:17.864Z,28.21
2018-07-23T19:29:47.789Z,28.14
2018-07-23T19:32:17.880Z,28.12
2018-07-23T19:34:47.912Z,28.08
2018-07-23T19:37:17.818Z,27.91
2018-07-23T19:39:47.996Z,27.79
2018-07-23T19:42:18.300Z,27.72
2018-07-23T19:44:48.622Z,27.64
2018-07-23T19:47:18.485Z,27.57
2018-07-23T19:49:48.500Z,27.51
2018-07-23T19:52:18.547Z,27.48
2018-07-23T19:54:48.699Z,27.35
2018-07-23T19:57:19.047Z,27.22
2018-07-23T19:59:49.177Z,27.18
2018-07-23T20:02:19.413Z,27.14
2018-07-23T20:04:49.556Z,27.07
2018-07-23T20:07:19.407Z,27.10
2018-07-23T20:09:49.445Z,26.99
2018-07-23T20:12:19.426Z,26.89
2018-07-23T20:14:49.324Z,26.85
2018-07-23T20:17:18.967Z,26.79
2018-07-23T20:19:49.879Z,26.71
2018-07-23T20:22:19.961Z,26.73
2018-07-23T20:24:49.585Z,26.73
2018-07-23T20:27:19.157Z,26.75
2018-07-23T20:29:49.275Z,26.73
2018-07-23T20:32:19.190Z,26.70
2018-07-23T20:34:49.197Z,26.63
2018-07-23T20:37:19.104Z,26.54
2018-07-23T20:39:49.017Z,26.45
2018-07-23T20:42:18.998Z,26.40
2018-07-23T20:44:49.063Z,26.38
2018-07-23T20:47:19.150Z,26.40
2018-07-23T20:49:49.226Z,26.40
2018-07-23T20:52:19.169Z,26.39
2018-07-23T20:54:49.050Z,26.34
2018-07-23T20:57:19.194Z,26.20
2018-07-23T20:59:49.036Z,26.09
2018-07-23T21:02:19.122Z,26.04
2018-07-23T21:04:48.934Z,26.03
2018-07-23T21:07:18.961Z,25.90
2018-07-23T21:09:48.776Z,25.88
2018-07-23T21:12:19.074Z,25.93
2018-07-23T21:14:51.822Z,25.84
2018-07-23T21:17:22.074Z,25.74
2018-07-23T21:19:52.136Z,25.76
2018-07-23T21:22:21.990Z,25.80
2018-07-23T21:24:51.693Z,25.82
2018-07-23T21:27:21.741Z,25.86
2018-07-23T21:29:51.909Z,25.85
2018-07-23T21:32:21.828Z,25.82
2018-07-23T21:34:51.716Z,25.77
2018-07-23T21:37:21.987Z,25.69
2018-07-23T21:39:51.887Z,25.66
2018-07-23T21:42:21.987Z,25.66
2018-07-23T21:44:51.624Z,25.64
2018-07-23T21:47:21.490Z,25.65
2018-07-23T21:49:51.420Z,25.49
2018-07-23T21:52:21.192Z,25.35
2018-07-23T21:54:51.147Z,25.36
2018-07-23T21:57:21.142Z,25.41
2018-07-23T21:59:51.288Z,25.39
2018-07-23T22:02:21.765Z,25.38
2018-07-23T22:04:51.951Z,25.35
2018-07-23T22:07:21.417Z,25.18
2018-07-23T22:09:51.434Z,25.07
2018-07-23T22:12:21.975Z,24.95
2018-07-23T22:14:52.000Z,24.86
2018-07-23T22:17:22.013Z,24.84
2018-07-23T22:19:52.081Z,24.88
2018-07-23T22:22:22.069Z,24.91
2018-07-23T22:24:52.048Z,24.85
2018-07-23T22:27:22.146Z,24.88
2018-07-23T22:29:52.124Z,24.91
2018-07-23T22:32:21.698Z,24.94
2018-07-23T22:34:51.773Z,24.87
2018-07-23T22:37:21.895Z,24.79
2018-07-23T22:39:51.780Z,24.68
2018-07-23T22:42:21.505Z,24.64
2018-07-23T22:44:52.055Z,24.67
2018-07-23T22:47:22.413Z,24.68
2018-07-23T22:49:52.312Z,24.65
2018-07-23T22:52:22.328Z,24.64
2018-07-23T22:54:52.152Z,24.52
2018-07-23T22:57:22.042Z,24.39
2018-07-23T22:59:51.980Z,24.30
2018-07-23T23:02:22.008Z,24.21
2018-07-23T23:04:52.017Z,24.23
2018-07-23T23:07:21.821Z,24.35
2018-07-23T23:09:51.813Z,24.39
2018-07-23T23:12:21.630Z,24.37
2018-07-23T23:14:51.506Z,24.28
2018-07-23T23:17:21.629Z,24.17
2018-07-23T23:19:51.684Z,24.05
2018-07-23T23:22:21.871Z,24.09
2018-07-23T23:24:52.188Z,24.13
2018-07-23T23:27:22.145Z,24.19
2018-07-23T23:29:52.105Z,24.20
2018-07-23T23:32:22.045Z,24.12
2018-07-23T23:34:52.233Z,24.10
2018-07-23T23:37:22.401Z,24.13
2018-07-23T23:39:51.840Z,24.17
2018-07-23T23:42:21.931Z,24.07
2018-07-23T23:44:51.794Z,23.99
2018-07-23T23:47:21.768Z,23.87
2018-07-23T23:49:51.800Z,23.79
2018-07-23T23:52:21.741Z,23.83
2018-07-23T23:54:51.570Z,23.91
2018-07-23T23:57:21.430Z,23.99
2018-07-23T23:59:51.371Z,24.03
